createdAt,value
2024-03-05T00:02:41.424Z,16.83
2024-03-05T00:12:46.490Z,14.63
2024-03-05T00:22:49.980Z,19.70
2024-03-05T00:32:54.551Z,16.60
2024-03-05T00:42:57.558Z,16.55
2024-03-05T00:53:01.910Z,16.23
2024-03-05T01:03:05.322Z,18.58
2024-03-05T01:13:10.201Z,17.75
2024-03-05T01:23:13.233Z,18.52
2024-03-05T01:33:22.089Z,25.27
2024-03-05T01:53:29.878Z,22.90
2024-03-05T02:03:33.351Z,23.10
2024-03-05T02:13:38.757Z,21.05
2024-03-05T02:23:43.435Z,22.20
2024-03-05T02:33:48.745Z,21.63
2024-03-05T02:43:53.231Z,25.08
2024-03-05T02:53:56.371Z,23.08
2024-03-05T03:04:00.739Z,21.05
2024-03-05T03:14:04.744Z,20.55
2024-03-05T03:24:10.239Z,17.33
2024-03-05T03:34:13.323Z,17.17
2024-03-05T03:44:18.617Z,19.48
2024-03-05T03:54:21.875Z,16.65
2024-03-05T04:04:26.224Z,18.10
2024-03-05T04:14:29.262Z,16.83
2024-03-05T04:24:37.233Z,20.45
2024-03-05T04:34:41.648Z,18.35
2024-03-05T04:44:46.333Z,21.63
2024-03-05T04:54:49.899Z,20.25
2024-03-05T05:04:54.375Z,23.38
2024-03-05T05:14:57.444Z,19.88
2024-03-05T05:25:02.553Z,18.95
2024-03-05T05:35:06.179Z,21.27
2024-03-05T05:45:12.325Z,22.73
2024-03-05T05:55:16.658Z,32.63
2024-03-05T06:05:21.461Z,24.05
2024-03-05T06:15:29.018Z,29.38
2024-03-05T06:25:34.766Z,28.45
2024-03-05T06:35:38.267Z,29.25
2024-03-05T06:45:44.209Z,25.50
2024-03-05T06:56:05.292Z,30.48
2024-03-05T07:06:11.297Z,23.63
2024-03-05T07:16:16.522Z,24.75
2024-03-05T07:26:20.968Z,25.95
2024-03-05T07:36:24.146Z,20.60
2024-03-05T07:46:29.198Z,18.30
2024-03-05T07:56:32.265Z,22.17
2024-03-05T08:06:36.709Z,22.00
2024-03-05T08:16:40.707Z,21.25
2024-03-05T08:26:45.437Z,22.88
2024-03-05T08:36:48.439Z,27.95
2024-03-05T08:46:53.346Z,29.15
2024-03-05T08:56:56.336Z,25.85
2024-03-05T09:07:02.733Z,27.90
2024-03-05T09:17:06.700Z,23.90
2024-03-05T09:27:11.261Z,25.23
2024-03-05T09:37:14.344Z,29.55
2024-03-05T09:47:19.611Z,22.30
2024-03-05T09:57:24.856Z,29.98
2024-03-05T10:07:29.878Z,23.95
2024-03-05T10:17:43.481Z,17.98
2024-03-05T10:27:50.663Z,15.75
2024-03-05T10:38:01.613Z,18.30
2024-03-05T10:48:08.719Z,22.58
2024-03-05T10:58:28.118Z,25.77
2024-03-05T11:18:37.730Z,29.38
2024-03-05T11:28:42.163Z,21.98
2024-03-05T11:39:06.760Z,23.85
2024-03-05T11:49:11.953Z,27.73
2024-03-05T11:59:15.394Z,28.05
2024-03-05T12:09:21.660Z,20.63
2024-03-05T12:19:26.293Z,29.58
2024-03-05T12:29:34.875Z,26.35
2024-03-05T12:39:38.069Z,23.98
2024-03-05T12:49:45.854Z,23.95
2024-03-05T12:59:49.132Z,23.63
2024-03-05T13:09:53.471Z,23.63
2024-03-05T13:19:56.772Z,22.98
2024-03-05T13:30:09.611Z,31.77
2024-03-05T13:40:19.552Z,30.17
2024-03-05T13:50:23.898Z,27.73
2024-03-05T14:00:27.626Z,27.05
2024-03-05T14:10:32.131Z,30.70
2024-03-05T14:20:35.171Z,31.55
2024-03-05T14:30:40.655Z,19.80
2024-03-05T14:40:44.531Z,18.40
2024-03-05T14:50:49.581Z,29.83
2024-03-05T15:00:52.862Z,24.50
2024-03-05T15:11:02.069Z,25.65
2024-03-05T15:21:15.070Z,23.80
2024-03-05T15:31:19.586Z,22.35
2024-03-05T15:41:22.547Z,22.15
2024-03-05T15:51:27.806Z,19.60
2024-03-05T16:01:32.115Z,21.00
2024-03-05T16:11:38.909Z,12.55
2024-03-05T16:21:41.909Z,10.07
2024-03-05T16:31:46.370Z,12.07
2024-03-05T16:41:49.372Z,12.00
2024-03-05T16:51:53.715Z,14.88
2024-03-05T17:02:01.440Z,18.92
2024-03-05T17:12:07.731Z,15.57
2024-03-05T17:22:10.792Z,13.65
2024-03-05T17:32:15.440Z,19.75
2024-03-05T17:42:18.635Z,18.50
2024-03-05T17:52:28.204Z,15.80
2024-03-05T18:02:31.349Z,12.68
2024-03-05T18:12:36.179Z,13.50
2024-03-05T18:22:40.851Z,14.73
2024-03-05T18:32:46.023Z,15.60
2024-03-05T18:42:51.022Z,18.77
2024-03-05T18:52:58.011Z,16.13
2024-03-05T19:03:02.093Z,13.57
2024-03-05T19:13:07.000Z,19.20
2024-03-05T19:23:10.191Z,14.15
2024-03-05T19:33:16.197Z,22.55
2024-03-05T19:43:19.317Z,21.00
2024-03-05T19:53:24.322Z,17.00
2024-03-05T20:03:29.051Z,17.67
2024-03-05T20:13:34.820Z,21.50
2024-03-05T20:23:38.797Z,18.83
2024-03-05T20:33:43.180Z,16.63
2024-03-05T20:43:47.014Z,15.07
2024-03-05T20:53:53.328Z,14.90
2024-03-05T21:03:56.706Z,14.13
2024-03-05T21:14:01.089Z,21.63
2024-03-05T21:24:04.432Z,20.38
2024-03-05T21:34:09.398Z,18.13
2024-03-05T21:44:15.148Z,24.38
2024-03-05T21:54:24.402Z,23.90
2024-03-05T22:04:27.608Z,20.30
2024-03-05T22:14:31.998Z,19.83
2024-03-05T22:24:35.137Z,24.08
2024-03-05T22:34:42.113Z,19.92
2024-03-05T22:44:45.086Z,20.90
2024-03-05T22:54:49.498Z,22.58
2024-03-05T23:04:52.517Z,25.17
2024-03-05T23:14:56.868Z,19.50
2024-03-05T23:24:59.857Z,14.40
2024-03-05T23:35:06.391Z,23.60
2024-03-05T23:45:10.597Z,23.27
2024-03-05T23:55:15.169Z,23.67
